Time;durP1;ratioP1;P1;durP2;ratioP2;P2;SDS_P1;SDS_P2;PMS_P1;PMS_P2;Temp;Humidity;BMP_temperature;BMP_pressure;BME280_temperature;BME280_humidity;BME280_pressure;Samples;Min_cycle;Max_cycle;Signal;HPM_P1;HPM_P2
2023/12/01 00:01:40;;;;;;;;;;;;;;;3.80;86.02;100113.75;7310976;19;20431;-66
2023/12/01 00:04:07;;;;;;;;;;;;;;;3.82;86.33;100107.47;7312347;19;19918;-68
2023/12/01 00:06:34;;;;;;;;;;;;;;;3.85;87.53;100115.03;7304927;19;19926;-67
2023/12/01 00:09:02;;;;;;;;;;;;;;;3.84;87.04;100109.94;7291017;19;19919;-68
2023/12/01 00:11:33;;;;;;;;;;;;;;;3.81;85.65;100108.41;7317137;19;20494;-66
2023/12/01 00:14:00;;;;;;;;;;;;;;;3.78;87.49;100103.47;7323270;19;19967;-67
2023/12/01 00:16:27;;;;;;;;;;;;;;;3.75;86.75;100113.31;7319756;19;19923;-67
2023/12/01 00:18:57;;;;;;;;;;;;;;;3.72;86.98;100114.38;7327966;19;19982;-66
2023/12/01 00:21:24;;;;;;;;;;;;;;;3.69;87.34;100114.66;7327236;19;19926;-66
2023/12/01 00:23:50;;;;;;;;;;;;;;;3.71;87.65;100114.50;7327511;19;19925;-68
2023/12/01 00:26:17;;;;;;;;;;;;;;;3.74;87.04;100120.28;7326144;19;20716;-67
2023/12/01 00:28:44;;;;;;;;;;;;;;;3.73;87.06;100110.84;7318945;19;19914;-66
2023/12/01 00:31:11;;;;;;;;;;;;;;;3.74;86.77;100120.28;7315579;19;20332;-66
2023/12/01 00:33:38;;;;;;;;;;;;;;;3.77;86.60;100122.63;7318343;19;20031;-67
2023/12/01 00:36:05;;;;;;;;;;;;;;;3.76;87.84;100114.94;7337889;19;19914;-66
2023/12/01 00:38:32;;;;;;;;;;;;;;;3.72;87.42;100122.19;7337248;19;19998;-66
2023/12/01 00:40:59;;;;;;;;;;;;;;;3.75;86.87;100121.13;7333425;19;19914;-66
2023/12/01 00:43:26;;;;;;;;;;;;;;;3.78;87.46;100119.09;7339252;19;19923;-66
2023/12/01 00:45:54;;;;;;;;;;;;;;;3.82;85.77;100123.06;7337212;19;20276;-67
2023/12/01 00:48:21;;;;;;;;;;;;;;;3.83;87.16;100126.50;7336916;19;20261;-66
2023/12/01 00:50:47;;;;;;;;;;;;;;;3.82;87.75;100130.88;7336162;19;20400;-66
2023/12/01 00:53:14;;;;;;;;;;;;;;;3.84;87.18;100121.19;7328158;19;20002;-67
2023/12/01 00:55:41;;;;;;;;;;;;;;;3.80;86.61;100132.81;7316086;19;19918;-68
2023/12/01 00:58:08;;;;;;;;;;;;;;;3.82;86.09;100122.25;7316554;19;19922;-66
2023/12/01 01:00:35;;;;;;;;;;;;;;;3.85;85.94;100125.44;7317009;19;19925;-67
2023/12/01 01:03:03;;;;;;;;;;;;;;;3.86;86.36;100136.66;7319760;19;19914;-67
2023/12/01 01:05:34;;;;;;;;;;;;;;;3.81;86.45;100131.00;7324238;19;19919;-66
2023/12/01 01:08:03;;;;;;;;;;;;;;;3.77;87.20;100143.44;7332716;19;20407;-68
2023/12/01 01:10:30;;;;;;;;;;;;;;;3.77;86.25;100134.81;7333163;19;19930;-66
2023/12/01 01:12:57;;;;;;;;;;;;;;;3.77;87.44;100135.63;7327663;19;19918;-66
2023/12/01 01:15:24;;;;;;;;;;;;;;;3.78;87.65;100144.28;7330679;19;19924;-66
2023/12/01 01:17:50;;;;;;;;;;;;;;;3.75;87.61;100134.13;7332582;19;19978;-66
2023/12/01 01:20:17;;;;;;;;;;;;;;;3.71;88.38;100141.34;7333118;19;19986;-66
2023/12/01 01:22:44;;;;;;;;;;;;;;;3.73;87.35;100142.06;7322094;19;19925;-66
2023/12/01 01:25:11;;;;;;;;;;;;;;;3.67;86.40;100146.94;7323579;19;20032;-66
2023/12/01 01:27:38;;;;;;;;;;;;;;;3.61;87.13;100147.41;7326860;19;20592;-67
2023/12/01 01:30:05;;;;;;;;;;;;;;;3.57;88.89;100144.25;7317341;19;20266;-66
2023/12/01 01:32:32;;;;;;;;;;;;;;;3.56;88.39;100144.38;7321483;19;19945;-67
2023/12/01 01:34:59;;;;;;;;;;;;;;;3.55;87.44;100145.34;7299583;19;20175;-67
2023/12/01 01:37:26;;;;;;;;;;;;;;;3.56;88.14;100149.56;7320701;19;19922;-66
2023/12/01 01:39:52;;;;;;;;;;;;;;;3.54;87.23;100147.13;7315539;19;19919;-67
2023/12/01 01:42:19;;;;;;;;;;;;;;;3.48;87.57;100155.41;7319845;19;21661;-66
2023/12/01 01:44:46;;;;;;;;;;;;;;;3.49;87.74;100148.44;7316564;19;20572;-65
2023/12/01 01:47:13;;;;;;;;;;;;;;;3.49;88.24;100148.44;7309901;19;20642;-67
2023/12/01 01:49:40;;;;;;;;;;;;;;;3.47;88.26;100163.31;7309677;19;20400;-66
2023/12/01 01:52:07;;;;;;;;;;;;;;;3.43;87.33;100153.19;7306881;19;20494;-67
2023/12/01 01:54:34;;;;;;;;;;;;;;;3.37;87.82;100145.03;7332386;19;19951;-66
2023/12/01 01:57:00;;;;;;;;;;;;;;;3.33;88.55;100152.28;7318686;19;19922;-67
2023/12/01 01:59:27;;;;;;;;;;;;;;;3.33;88.78;100154.06;7307501;19;19926;-66
2023/12/01 02:01:55;;;;;;;;;;;;;;;3.31;89.07;100158.53;7316080;19;19926;-66
2023/12/01 02:04:22;;;;;;;;;;;;;;;3.33;88.73;100154.88;7309596;19;20034;-67
2023/12/01 02:06:49;;;;;;;;;;;;;;;3.34;88.20;100153.94;7317846;19;19978;-66
2023/12/01 02:09:16;;;;;;;;;;;;;;;3.32;89.24;100149.78;7314394;19;19919;-67
2023/12/01 02:11:43;;;;;;;;;;;;;;;3.27;88.40;100149.34;7318410;19;19926;-66
2023/12/01 02:14:10;;;;;;;;;;;;;;;3.26;88.73;100152.88;7321963;19;20579;-68
2023/12/01 02:16:45;;;;;;;;;;;;;;;3.24;89.09;100153.03;7316203;19;21192;-66
2023/12/01 02:19:13;;;;;;;;;;;;;;;3.25;89.25;100154.66;7320820;19;20398;-67
2023/12/01 02:21:47;;;;;;;;;;;;;;;3.25;89.13;100153.84;7310030;19;21072;-66
2023/12/01 02:24:14;;;;;;;;;;;;;;;3.34;89.41;100163.50;7323291;19;19929;-66
2023/12/01 02:26:41;;;;;;;;;;;;;;;3.32;88.90;100162.78;7322334;19;20260;-66
2023/12/01 02:29:07;;;;;;;;;;;;;;;3.29;88.86;100156.06;7324937;19;20490;-67
2023/12/01 02:31:35;;;;;;;;;;;;;;;3.30;87.92;100160.31;7317227;19;19990;-66
2023/12/01 02:34:03;;;;;;;;;;;;;;;3.25;88.29;100161.66;7330844;19;19922;-67
2023/12/01 02:36:30;;;;;;;;;;;;;;;3.29;88.28;100156.06;7323475;19;20471;-67
2023/12/01 02:38:58;;;;;;;;;;;;;;;3.26;88.85;100145.91;7316087;19;19955;-66
2023/12/01 02:41:25;;;;;;;;;;;;;;;3.25;88.78;100152.06;7327493;19;19923;-65
2023/12/01 02:43:53;;;;;;;;;;;;;;;3.23;88.92;100147.94;7336866;19;19923;-66
2023/12/01 02:46:22;;;;;;;;;;;;;;;3.18;88.87;100155.28;7335711;19;20410;-67
2023/12/01 02:48:50;;;;;;;;;;;;;;;3.13;89.53;100152.22;7316042;19;19998;-67
2023/12/01 02:51:18;;;;;;;;;;;;;;;3.14;89.64;100151.28;7312776;19;20471;-66
2023/12/01 02:53:45;;;;;;;;;;;;;;;3.13;89.56;100157.41;7309072;19;19912;-66
2023/12/01 02:56:12;;;;;;;;;;;;;;;3.10;89.51;100166.25;7306666;19;19974;-65
2023/12/01 02:58:38;;;;;;;;;;;;;;;3.09;90.98;100164.63;7331558;19;20425;-66
2023/12/01 03:01:05;;;;;;;;;;;;;;;3.07;90.18;100169.13;7297683;19;19926;-66
2023/12/01 03:03:32;;;;;;;;;;;;;;;3.04;90.82;100161.56;7307141;19;19935;-65
2023/12/01 03:05:59;;;;;;;;;;;;;;;3.08;91.45;100175.16;7309980;19;22244;-67
2023/12/01 03:08:26;;;;;;;;;;;;;;;3.09;91.64;100171.59;7311530;19;19918;-67
2023/12/01 03:10:53;;;;;;;;;;;;;;;3.07;90.99;100163.91;7315254;19;22605;-66
2023/12/01 03:13:21;;;;;;;;;;;;;;;3.09;91.49;100164.63;7332649;19;20129;-67
2023/12/01 03:15:49;;;;;;;;;;;;;;;3.09;90.06;100171.59;7334926;19;20395;-67
2023/12/01 03:18:17;;;;;;;;;;;;;;;3.05;90.73;100158.00;7333615;19;20006;-66
2023/12/01 03:20:46;;;;;;;;;;;;;;;3.09;90.63;100169.00;7313533;19;19919;-67
2023/12/01 03:23:13;;;;;;;;;;;;;;;3.05;90.62;100168.41;7319336;19;19923;-66
2023/12/01 03:25:41;;;;;;;;;;;;;;;3.07;90.95;100166.53;7316711;19;20406;-66
2023/12/01 03:28:08;;;;;;;;;;;;;;;3.07;91.42;100170.88;7318162;19;19915;-67
2023/12/01 03:30:35;;;;;;;;;;;;;;;3.09;91.54;100159.44;7326621;19;20025;-68
2023/12/01 03:33:01;;;;;;;;;;;;;;;3.08;91.20;100162.16;7320414;19;19919;-67
2023/12/01 03:35:28;;;;;;;;;;;;;;;3.13;91.43;100170.41;7328316;19;19922;-67
2023/12/01 03:37:57;;;;;;;;;;;;;;;3.13;91.71;100163.44;7316173;19;20019;-68
2023/12/01 03:40:25;;;;;;;;;;;;;;;3.13;90.61;100152.22;7299991;19;19929;-69
2023/12/01 03:42:52;;;;;;;;;;;;;;;3.14;90.71;100161.66;7311833;19;20356;-66
2023/12/01 03:45:20;;;;;;;;;;;;;;;3.15;90.29;100158.13;7309869;19;19926;-66
2023/12/01 03:47:51;;;;;;;;;;;;;;;3.10;89.78;100149.88;7312989;19;19927;-66
2023/12/01 03:50:19;;;;;;;;;;;;;;;3.10;89.97;100155.88;7309776;19;19978;-66
2023/12/01 03:52:47;;;;;;;;;;;;;;;3.08;90.91;100156.97;7319295;19;19922;-68
2023/12/01 03:55:14;;;;;;;;;;;;;;;3.07;91.57;100156.13;7312579;19;20040;-66
2023/12/01 03:57:42;;;;;;;;;;;;;;;3.05;91.93;100163.19;7319831;19;19982;-67
2023/12/01 04:00:13;;;;;;;;;;;;;;;3.05;92.20;100155.41;7304838;19;20541;-67
2023/12/01 04:02:42;;;;;;;;;;;;;;;3.09;91.32;100156.84;7310103;19;19923;-67
2023/12/01 04:05:16;;;;;;;;;;;;;;;3.09;91.42;100159.44;7314726;19;19925;-68
2023/12/01 04:07:50;;;;;;;;;;;;;;;3.10;90.73;100153.28;7317313;19;19994;-66
2023/12/01 04:10:20;;;;;;;;;;;;;;;3.14;90.83;100159.06;7323961;19;20415;-66
2023/12/01 04:13:07;;;;;;;;;;;;;;;3.12;90.69;100153.16;7339470;19;19932;-67
2023/12/01 04:15:40;;;;;;;;;;;;;;;3.13;91.43;100154.81;7330252;19;20235;-68
2023/12/01 04:18:08;;;;;;;;;;;;;;;3.14;91.73;100156.47;7325539;19;19930;-67
2023/12/01 04:20:38;;;;;;;;;;;;;;;3.11;91.77;100151.50;7326946;19;19915;-67
2023/12/01 04:23:10;;;;;;;;;;;;;;;3.12;91.63;100156.59;7324223;19;20624;-67
2023/12/01 04:25:40;;;;;;;;;;;;;;;3.13;91.79;100165.22;7332751;19;19918;-66
2023/12/01 04:28:07;;;;;;;;;;;;;;;3.10;91.06;100149.88;7320551;19;19929;-68
2023/12/01 04:30:34;;;;;;;;;;;;;;;3.11;90.37;100149.72;7323360;19;20380;-69
2023/12/01 04:33:01;;;;;;;;;;;;;;;3.03;90.14;100159.91;7340755;19;20309;-66
2023/12/01 04:35:30;;;;;;;;;;;;;;;3.00;90.90;100149.75;7328592;19;20015;-66
2023/12/01 04:37:58;;;;;;;;;;;;;;;2.92;90.84;100167.72;7316853;19;20317;-66
2023/12/01 04:40:27;;;;;;;;;;;;;;;2.81;91.11;100162.53;7309433;19;20583;-66
2023/12/01 04:42:55;;;;;;;;;;;;;;;2.69;92.09;100163.53;7329668;19;19923;-67
2023/12/01 04:45:24;;;;;;;;;;;;;;;2.61;92.37;100160.66;7325454;19;19919;-67
2023/12/01 04:47:52;;;;;;;;;;;;;;;2.60;93.09;100159.84;7322530;19;19944;-69
2023/12/01 04:50:20;;;;;;;;;;;;;;;2.55;93.11;100162.78;7316060;19;19918;-65
2023/12/01 04:52:48;;;;;;;;;;;;;;;2.54;93.74;100168.94;7326296;19;19921;-67
2023/12/01 04:55:16;;;;;;;;;;;;;;;2.56;94.05;100171.41;7325850;19;20167;-67
2023/12/01 04:57:43;;;;;;;;;;;;;;;2.52;94.40;100177.78;7325685;19;21238;-66
2023/12/01 05:00:21;;;;;;;;;;;;;;;2.50;94.68;100175.31;7321071;19;20256;-66
2023/12/01 05:02:51;;;;;;;;;;;;;;;2.58;94.37;100174.72;7322906;19;19918;-66
2023/12/01 05:05:24;;;;;;;;;;;;;;;2.57;93.93;100178.25;7320823;19;19910;-67
2023/12/01 05:07:52;;;;;;;;;;;;;;;2.56;94.79;100177.44;7318761;19;20558;-67
2023/12/01 05:10:20;;;;;;;;;;;;;;;2.55;94.59;100177.53;7302292;19;20495;-66
2023/12/01 05:12:51;;;;;;;;;;;;;;;2.56;95.09;100180.03;7312929;19;20392;-67
2023/12/01 05:15:20;;;;;;;;;;;;;;;2.54;95.15;100178.47;7322088;19;19925;-66
2023/12/01 05:17:49;;;;;;;;;;;;;;;2.56;95.69;100185.22;7321632;19;20007;-67
2023/12/01 05:20:17;;;;;;;;;;;;;;;2.58;95.66;100178.16;7322021;19;19907;-66
2023/12/01 05:22:47;;;;;;;;;;;;;;;2.66;95.62;100184.50;7326486;19;20588;-67
2023/12/01 05:25:15;;;;;;;;;;;;;;;2.64;95.27;100184.66;7328030;19;21059;-66
2023/12/01 05:27:55;;;;;;;;;;;;;;;2.59;95.15;100177.19;7320760;19;19923;-66
2023/12/01 05:30:23;;;;;;;;;;;;;;;2.61;95.24;100192.66;7324766;19;19974;-67
2023/12/01 05:32:51;;;;;;;;;;;;;;;2.59;94.97;100182.38;7323670;19;19987;-66
2023/12/01 05:35:19;;;;;;;;;;;;;;;2.59;95.24;100182.38;7318302;19;19927;-66
2023/12/01 05:37:48;;;;;;;;;;;;;;;2.64;95.39;100184.66;7326439;19;19935;-66
2023/12/01 05:40:22;;;;;;;;;;;;;;;2.63;95.19;100189.94;7333791;19;20852;-66
2023/12/01 05:42:52;;;;;;;;;;;;;;;2.66;95.96;100185.34;7337366;19;19915;-66
2023/12/01 05:45:20;;;;;;;;;;;;;;;2.75;96.02;100183.78;7319463;19;20194;-68
2023/12/01 05:47:48;;;;;;;;;;;;;;;2.74;94.78;100187.34;7321500;19;20509;-66
2023/12/01 05:50:16;;;;;;;;;;;;;;;2.77;94.98;100194.91;7319558;19;19922;-67
2023/12/01 05:52:45;;;;;;;;;;;;;;;2.73;94.01;100188.28;7329034;19;20653;-67
2023/12/01 05:55:14;;;;;;;;;;;;;;;2.67;94.68;100201.75;7328531;19;19936;-67
2023/12/01 05:57:46;;;;;;;;;;;;;;;2.63;95.44;100201.16;7303845;19;19919;-66
2023/12/01 06:00:17;;;;;;;;;;;;;;;2.68;96.29;100201.63;7298754;19;19933;-65
2023/12/01 06:02:45;;;;;;;;;;;;;;;2.74;96.83;100205.53;7331577;19;20018;-69
2023/12/01 06:05:12;;;;;;;;;;;;;;;2.79;94.01;100195.63;7337382;19;20399;-67
2023/12/01 06:07:41;;;;;;;;;;;;;;;2.74;94.49;100195.97;7336386;19;20305;-68
2023/12/01 06:10:09;;;;;;;;;;;;;;;2.76;94.84;100206.22;7316293;19;20608;-66
2023/12/01 06:12:39;;;;;;;;;;;;;;;2.69;94.36;100211.09;7316111;19;19925;-66
2023/12/01 06:15:10;;;;;;;;;;;;;;;2.70;95.19;100206.69;7312548;19;19930;-67
2023/12/01 06:17:37;;;;;;;;;;;;;;;2.75;95.42;100215.78;7321730;19;20300;-67
2023/12/01 06:20:04;;;;;;;;;;;;;;;2.73;95.18;100209.91;7322935;19;20343;-68
2023/12/01 06:22:32;;;;;;;;;;;;;;;2.75;95.68;100214.94;7322585;19;19923;-66
2023/12/01 06:24:59;;;;;;;;;;;;;;;2.79;95.87;100217.22;7322032;19;19918;-68
2023/12/01 06:27:26;;;;;;;;;;;;;;;2.80;96.42;100216.25;7301437;19;20343;-66
2023/12/01 06:29:53;;;;;;;;;;;;;;;2.83;96.42;100220.41;7319600;19;19918;-68
2023/12/01 06:32:19;;;;;;;;;;;;;;;2.85;95.72;100218.50;7312631;19;19921;-67
2023/12/01 06:34:46;;;;;;;;;;;;;;;2.90;94.36;100218.97;7309674;19;20317;-66
2023/12/01 06:37:13;;;;;;;;;;;;;;;2.87;93.97;100214.03;7318212;19;21859;-67
2023/12/01 06:39:40;;;;;;;;;;;;;;;2.88;94.12;100226.06;7321111;19;19958;-67
2023/12/01 06:42:08;;;;;;;;;;;;;;;2.89;93.87;100220.75;7325305;19;19922;-67
2023/12/01 06:44:35;;;;;;;;;;;;;;;2.93;93.93;100223.94;7328945;19;19927;-66
2023/12/01 06:47:02;;;;;;;;;;;;;;;2.93;93.52;100229.97;7325799;19;19918;-68
2023/12/01 06:49:29;;;;;;;;;;;;;;;2.87;93.18;100224.41;7317817;19;19966;-68
2023/12/01 06:51:58;;;;;;;;;;;;;;;2.88;93.16;100232.09;7327630;19;19922;-66
2023/12/01 06:54:27;;;;;;;;;;;;;;;2.91;93.01;100231.84;7318085;19;20245;-67
2023/12/01 06:56:55;;;;;;;;;;;;;;;2.91;92.99;100233.59;7311473;19;21567;-66
2023/12/01 06:59:22;;;;;;;;;;;;;;;2.93;93.27;100234.31;7322006;19;19932;-66
2023/12/01 07:01:48;;;;;;;;;;;;;;;2.93;92.93;100226.53;7319803;19;21128;-66
2023/12/01 07:04:15;;;;;;;;;;;;;;;2.96;92.97;100234.91;7315610;19;19910;-66
2023/12/01 07:06:46;;;;;;;;;;;;;;;2.99;93.14;100236.47;7317587;19;19956;-66
2023/12/01 07:09:17;;;;;;;;;;;;;;;2.98;93.16;100235.63;7332634;19;19922;-66
2023/12/01 07:11:47;;;;;;;;;;;;;;;2.97;93.52;100233.97;7333149;19;20169;-67
2023/12/01 07:14:14;;;;;;;;;;;;;;;2.98;92.96;100229.59;7333227;19;20428;-66
2023/12/01 07:16:42;;;;;;;;;;;;;;;3.04;92.53;100229.13;7331715;19;20395;-69
2023/12/01 07:19:09;;;;;;;;;;;;;;;3.00;93.05;100228.53;7302625;19;19925;-66
2023/12/01 07:21:35;;;;;;;;;;;;;;;2.96;92.88;100228.88;7315294;19;19994;-67
2023/12/01 07:24:04;;;;;;;;;;;;;;;2.92;93.73;100228.31;7317283;19;20180;-67
2023/12/01 07:26:33;;;;;;;;;;;;;;;2.91;93.67;100234.44;7311187;19;20490;-66
2023/12/01 07:29:06;;;;;;;;;;;;;;;2.92;94.64;100243.06;7307299;19;19926;-65
2023/12/01 07:31:39;;;;;;;;;;;;;;;2.95;96.30;100254.03;7319818;19;19937;-68
2023/12/01 07:34:10;;;;;;;;;;;;;;;2.95;97.09;100250.59;7306211;19;19923;-67
2023/12/01 07:36:37;;;;;;;;;;;;;;;3.02;97.59;100246.59;7312109;19;19919;-66
2023/12/01 07:39:10;;;;;;;;;;;;;;;3.01;97.30;100260.53;7323409;19;19930;-67
2023/12/01 07:41:37;;;;;;;;;;;;;;;3.10;98.58;100259.00;7329383;19;21664;-67
2023/12/01 07:44:03;;;;;;;;;;;;;;;3.14;98.92;100265.63;7321702;19;19921;-67
2023/12/01 07:46:33;;;;;;;;;;;;;;;3.12;96.20;100263.13;7332810;19;19918;-72
2023/12/01 07:49:00;;;;;;;;;;;;;;;3.09;95.87;100258.19;7323840;19;19919;-68
2023/12/01 07:51:35;;;;;;;;;;;;;;;3.11;93.53;100263.22;7300954;19;20234;-67
2023/12/01 07:54:02;;;;;;;;;;;;;;;3.06;94.10;100271.38;7309190;19;19926;-66
2023/12/01 07:56:32;;;;;;;;;;;;;;;3.05;95.36;100276.72;7323114;19;20244;-67
2023/12/01 07:58:59;;;;;;;;;;;;;;;3.05;95.68;100269.72;7313931;19;19954;-68
2023/12/01 08:01:26;;;;;;;;;;;;;;;3.08;95.30;100273.88;7320381;19;20463;-67
2023/12/01 08:03:53;;;;;;;;;;;;;;;3.15;96.06;100282.88;7320999;19;19931;-67
2023/12/01 08:06:20;;;;;;;;;;;;;;;3.19;96.10;100282.50;7323939;19;20059;-67
2023/12/01 08:08:46;;;;;;;;;;;;;;;3.28;96.75;100284.38;7314744;19;19961;-67
2023/12/01 08:11:16;;;;;;;;;;;;;;;3.33;94.64;100299.63;7313163;19;19919;-67
2023/12/01 08:13:43;;;;;;;;;;;;;;;3.29;94.20;100290.41;7320056;19;20007;-66
2023/12/01 08:16:10;;;;;;;;;;;;;;;3.30;94.58;100287.66;7316887;19;19918;-66
2023/12/01 08:18:36;;;;;;;;;;;;;;;3.37;94.90;100296.66;7308455;19;19934;-68
2023/12/01 08:21:04;;;;;;;;;;;;;;;3.36;94.87;100304.56;7320340;19;19918;-67
2023/12/01 08:23:31;;;;;;;;;;;;;;;3.40;95.33;100306.00;7313709;19;19922;-67
2023/12/01 08:25:58;;;;;;;;;;;;;;;3.49;94.54;100315.66;7313859;19;19914;-66
2023/12/01 08:28:25;;;;;;;;;;;;;;;3.49;93.24;100312.25;7323744;19;21396;-67
2023/12/01 08:30:51;;;;;;;;;;;;;;;3.49;92.72;100313.06;7315217;19;19914;-67
2023/12/01 08:33:19;;;;;;;;;;;;;;;3.52;92.46;100301.59;7316177;19;19918;-67
2023/12/01 08:35:47;;;;;;;;;;;;;;;3.41;91.99;100299.81;7323258;19;19947;-67
2023/12/01 08:38:14;;;;;;;;;;;;;;;3.38;93.21;100313.06;7315521;19;19918;-67
2023/12/01 08:40:41;;;;;;;;;;;;;;;3.36;93.62;100304.56;7325060;19;20457;-67
2023/12/01 08:43:09;;;;;;;;;;;;;;;3.38;93.70;100313.06;7326287;19;20344;-67
2023/12/01 08:45:36;;;;;;;;;;;;;;;3.39;93.94;100318.16;7322200;19;20668;-67
2023/12/01 08:48:03;;;;;;;;;;;;;;;3.43;92.59;100308.34;7326923;19;19936;-67
2023/12/01 08:50:30;;;;;;;;;;;;;;;3.44;92.34;100300.44;7314504;19;20860;-65
2023/12/01 08:52:57;;;;;;;;;;;;;;;3.55;94.42;100316.97;7319548;19;20302;-66
2023/12/01 08:55:24;;;;;;;;;;;;;;;3.66;95.21;100309.13;7329785;19;20423;-66
2023/12/01 08:57:51;;;;;;;;;;;;;;;3.74;96.46;100317.16;7323258;19;22624;-68
2023/12/01 09:00:21;;;;;;;;;;;;;;;3.68;91.81;100318.47;7326139;19;19922;-67
2023/12/01 09:02:50;;;;;;;;;;;;;;;3.67;91.99;100315.97;7322898;19;20186;-67
2023/12/01 09:05:17;;;;;;;;;;;;;;;3.65;91.95;100310.09;7318482;19;20764;-67
2023/12/01 09:07:47;;;;;;;;;;;;;;;3.67;91.89;100314.22;7319662;19;19922;-66
2023/12/01 09:10:14;;;;;;;;;;;;;;;3.62;92.19;100315.50;7323707;19;20696;-67
2023/12/01 09:12:42;;;;;;;;;;;;;;;3.57;92.48;100321.09;7326523;19;19918;-67
2023/12/01 09:15:10;;;;;;;;;;;;;;;3.59;92.75;100331.38;7326922;19;19922;-67
2023/12/01 09:17:37;;;;;;;;;;;;;;;3.63;91.97;100331.00;7325100;19;20299;-66
2023/12/01 09:20:04;;;;;;;;;;;;;;;3.60;90.84;100323.47;7316909;19;19941;-66
2023/12/01 09:22:34;;;;;;;;;;;;;;;3.54;91.23;100328.31;7327201;19;19921;-66
2023/12/01 09:25:00;;;;;;;;;;;;;;;3.55;92.07;100333.41;7317961;19;19936;-67
2023/12/01 09:27:31;;;;;;;;;;;;;;;3.58;91.71;100340.94;7321123;19;19923;-66
2023/12/01 09:30:01;;;;;;;;;;;;;;;3.64;92.18;100337.88;7325066;19;19915;-67
2023/12/01 09:32:28;;;;;;;;;;;;;;;3.66;92.04;100338.56;7315911;19;19923;-68
2023/12/01 09:34:55;;;;;;;;;;;;;;;3.68;92.53;100346.25;7319141;19;19933;-67
2023/12/01 09:37:23;;;;;;;;;;;;;;;3.73;92.16;100344.13;7310682;19;19917;-67
2023/12/01 09:39:51;;;;;;;;;;;;;;;3.79;92.04;100344.47;7319696;19;19922;-66
2023/12/01 09:42:19;;;;;;;;;;;;;;;3.88;90.80;100348.94;7323045;19;19914;-66
2023/12/01 09:44:46;;;;;;;;;;;;;;;3.95;91.03;100351.03;7324586;19;20348;-66
2023/12/01 09:47:13;;;;;;;;;;;;;;;3.99;89.92;100358.47;7329430;19;20474;-66
2023/12/01 09:49:42;;;;;;;;;;;;;;;4.00;89.95;100354.94;7319259;19;20754;-65
2023/12/01 09:52:09;;;;;;;;;;;;;;;3.99;90.02;100368.06;7331184;19;19930;-66
2023/12/01 09:54:36;;;;;;;;;;;;;;;4.11;89.50;100359.28;7323894;19;19943;-66
2023/12/01 09:57:06;;;;;;;;;;;;;;;4.18;88.14;100353.44;7320377;19;19922;-65
2023/12/01 09:59:38;;;;;;;;;;;;;;;4.20;88.48;100355.94;7315759;19;19922;-67
2023/12/01 10:02:05;;;;;;;;;;;;;;;4.20;87.99;100364.56;7327143;19;19922;-68
2023/12/01 10:04:33;;;;;;;;;;;;;;;4.26;89.04;100361.47;7320527;19;20418;-66
2023/12/01 10:07:07;;;;;;;;;;;;;;;4.29;88.81;100357.78;7317769;19;19923;-67
2023/12/01 10:09:35;;;;;;;;;;;;;;;4.32;88.02;100358.34;7317426;19;22050;-67
2023/12/01 10:12:12;;;;;;;;;;;;;;;4.30;87.53;100364.66;7334176;19;20352;-67
2023/12/01 10:14:41;;;;;;;;;;;;;;;4.34;88.46;100368.66;7336695;19;20348;-67
2023/12/01 10:17:12;;;;;;;;;;;;;;;4.24;88.78;100376.38;7334662;19;19929;-66
2023/12/01 10:19:47;;;;;;;;;;;;;;;4.30;88.14;100370.69;7323930;19;21197;-66
2023/12/01 10:22:17;;;;;;;;;;;;;;;4.37;88.89;100375.41;7324981;19;19918;-68
2023/12/01 10:25:00;;;;;;;;;;;;;;;4.40;89.23;100375.97;7311574;19;20899;-68
2023/12/01 10:27:29;;;;;;;;;;;;;;;4.53;87.06;100378.38;7326927;19;20301;-66
2023/12/01 10:30:12;;;;;;;;;;;;;;;4.48;86.49;100378.78;7323488;19;20424;-67
2023/12/01 10:32:41;;;;;;;;;;;;;;;4.45;86.55;100384.25;7319891;19;19922;-66
2023/12/01 10:35:08;;;;;;;;;;;;;;;4.42;86.55;100387.06;7320172;19;19930;-66
2023/12/01 10:37:36;;;;;;;;;;;;;;;4.43;86.63;100386.13;7327261;19;19934;-66
2023/12/01 10:40:08;;;;;;;;;;;;;;;4.41;86.72;100379.41;7319912;19;19914;-65
2023/12/01 10:42:35;;;;;;;;;;;;;;;4.37;86.77;100385.81;7325121;19;20433;-67
2023/12/01 10:45:03;;;;;;;;;;;;;;;4.30;87.04;100375.06;7328116;19;19937;-67
2023/12/01 10:47:32;;;;;;;;;;;;;;;4.33;87.84;100380.00;7320084;19;19948;-67
2023/12/01 10:49:59;;;;;;;;;;;;;;;4.32;88.85;100370.53;7312144;19;21549;-66
2023/12/01 10:52:26;;;;;;;;;;;;;;;4.36;88.52;100371.16;7322303;19;19914;-66
2023/12/01 10:54:53;;;;;;;;;;;;;;;4.41;87.11;100375.03;7316316;19;20363;-67
2023/12/01 10:57:36;;;;;;;;;;;;;;;4.45;85.98;100370.41;7319935;19;19994;-67
2023/12/01 11:00:05;;;;;;;;;;;;;;;4.48;87.09;100376.16;7327143;19;19998;-67
2023/12/01 11:02:34;;;;;;;;;;;;;;;4.45;86.83;100375.59;7313925;19;19923;-67
2023/12/01 11:05:01;;;;;;;;;;;;;;;4.40;87.00;100359.53;7319449;19;19922;-67
2023/12/01 11:07:28;;;;;;;;;;;;;;;4.41;86.75;100367.22;7308542;19;19922;-66
2023/12/01 11:10:14;;;;;;;;;;;;;;;4.41;86.99;100367.22;7311698;19;19919;-66
2023/12/01 11:12:41;;;;;;;;;;;;;;;4.49;88.25;100357.00;7317740;19;19929;-67
2023/12/01 11:15:13;;;;;;;;;;;;;;;4.56;89.18;100359.94;7326236;19;19918;-67
2023/12/01 11:17:41;;;;;;;;;;;;;;;4.61;86.12;100358.59;7296479;19;19938;-65
2023/12/01 11:20:32;;;;;;;;;;;;;;;4.66;85.96;100348.63;7311534;19;20084;-66
2023/12/01 11:23:02;;;;;;;;;;;;;;;4.72;85.69;100355.09;7314535;19;19921;-65
2023/12/01 11:25:38;;;;;;;;;;;;;;;4.77;86.52;100362.53;7310635;19;20320;-66
2023/12/01 11:28:22;;;;;;;;;;;;;;;4.82;87.50;100356.00;7319611;19;20014;-65
2023/12/01 11:31:19;;;;;;;;;;;;;;;4.86;86.17;100364.38;7316161;19;20760;-66
2023/12/01 11:33:47;;;;;;;;;;;;;;;4.86;85.02;100369.59;7308961;19;19934;-65
2023/12/01 11:36:32;;;;;;;;;;;;;;;4.85;85.58;100365.31;7319278;19;19926;-66
2023/12/01 11:39:10;;;;;;;;;;;;;;;4.89;85.37;100364.94;7324118;19;20306;-65
2023/12/01 11:41:44;;;;;;;;;;;;;;;4.88;84.65;100368.50;7313059;19;20554;-66
2023/12/01 11:44:14;;;;;;;;;;;;;;;4.86;84.68;100374.81;7315656;19;19971;-67
2023/12/01 11:46:41;;;;;;;;;;;;;;;4.90;85.20;100371.81;7311880;19;20504;-67
2023/12/01 11:49:09;;;;;;;;;;;;;;;4.91;85.39;100373.47;7323825;19;19923;-66
2023/12/01 11:51:36;;;;;;;;;;;;;;;4.96;84.53;100376.53;7311606;19;19929;-66
2023/12/01 11:54:03;;;;;;;;;;;;;;;4.97;83.68;100367.75;7327080;19;19945;-66
2023/12/01 11:56:36;;;;;;;;;;;;;;;4.99;83.54;100376.25;7333691;19;20676;-68
2023/12/01 11:59:03;;;;;;;;;;;;;;;5.01;84.83;100363.91;7327728;19;19918;-66
2023/12/01 12:01:32;;;;;;;;;;;;;;;5.03;85.28;100376.81;7318160;19;19965;-66
2023/12/01 12:03:59;;;;;;;;;;;;;;;5.02;85.47;100373.41;7315534;19;19938;-66
2023/12/01 12:06:26;;;;;;;;;;;;;;;5.03;83.72;100384.63;7318982;19;20303;-65
2023/12/01 12:08:53;;;;;;;;;;;;;;;4.97;83.76;100377.34;7320543;19;20525;-65
2023/12/01 12:11:23;;;;;;;;;;;;;;;4.89;83.72;100383.19;7304326;19;19917;-66
2023/12/01 12:13:54;;;;;;;;;;;;;;;4.87;84.73;100377.28;7308326;19;21285;-68
2023/12/01 12:16:22;;;;;;;;;;;;;;;4.88;85.86;100376.31;7319902;19;19943;-66
2023/12/01 12:18:49;;;;;;;;;;;;;;;4.92;86.25;100369.09;7312484;19;19911;-66
2023/12/01 12:21:17;;;;;;;;;;;;;;;4.94;84.35;100378.41;7319327;19;19947;-66
2023/12/01 12:23:45;;;;;;;;;;;;;;;4.81;83.46;100371.75;7303014;19;19926;-67
2023/12/01 12:26:15;;;;;;;;;;;;;;;4.80;84.07;100365.72;7309072;19;19931;-66
2023/12/01 12:28:44;;;;;;;;;;;;;;;4.77;83.39;100373.78;7316980;19;19946;-68
2023/12/01 12:31:11;;;;;;;;;;;;;;;4.74;83.29;100374.84;7314541;19;20802;-67
2023/12/01 12:33:38;;;;;;;;;;;;;;;4.65;83.59;100372.19;7320928;19;20002;-67
2023/12/01 12:36:06;;;;;;;;;;;;;;;4.66;84.34;100369.47;7321101;19;19922;-67
2023/12/01 12:38:35;;;;;;;;;;;;;;;4.71;85.28;100374.28;7322467;19;19927;-67
2023/12/01 12:41:04;;;;;;;;;;;;;;;4.74;85.30;100372.25;7328123;19;19919;-67
2023/12/01 12:43:31;;;;;;;;;;;;;;;4.79;85.35;100366.66;7314906;19;19946;-67
2023/12/01 12:46:05;;;;;;;;;;;;;;;4.84;85.04;100369.72;7331043;19;20824;-65
2023/12/01 12:48:33;;;;;;;;;;;;;;;4.82;85.05;100370.81;7326730;19;20519;-66
2023/12/01 12:50:59;;;;;;;;;;;;;;;4.87;84.42;100371.25;7302942;19;20018;-66
2023/12/01 12:53:28;;;;;;;;;;;;;;;4.85;84.16;100365.31;7328111;19;20320;-66
2023/12/01 12:55:54;;;;;;;;;;;;;;;4.84;85.11;100367.09;7327973;19;20269;-66